Time;durP1;ratioP1;P1;durP2;ratioP2;P2;SDS_P1;SDS_P2;PMS_P1;PMS_P2;Temp;Humidity;BMP_temperature;BMP_pressure;BME280_temperature;BME280_humidity;BME280_pressure;Samples;Min_cycle;Max_cycle;Signal;HPM_P1;HPM_P2
2022/08/06 00:01:49;;;;;;;0.00;0.00;;;8.80;99.90;;;;;;5039613;28;20046;-92
2022/08/06 00:04:14;;;;;;;0.00;0.00;;;8.80;99.90;;;;;;5039461;28;20057;-91
2022/08/06 00:06:40;;;;;;;0.00;0.00;;;8.80;99.90;;;;;;5023414;28;20038;-91
2022/08/06 00:09:06;;;;;;;0.00;0.00;;;8.90;99.90;;;;;;5039746;28;20090;-91
2022/08/06 00:11:31;;;;;;;0.00;0.00;;;9.30;99.90;;;;;;5039379;28;20029;-92
2022/08/06 00:13:57;;;;;;;0.08;0.08;;;8.80;99.90;;;;;;5040402;28;20021;-89
2022/08/06 00:16:22;;;;;;;0.00;0.00;;;8.80;99.90;;;;;;5039941;28;20038;-90
2022/08/06 00:18:48;;;;;;;0.00;0.00;;;8.70;99.90;;;;;;5023662;28;20030;-90
2022/08/06 00:21:14;;;;;;;0.00;0.00;;;9.90;99.90;;;;;;5023657;28;20026;-90
2022/08/06 00:23:42;;;;;;;0.00;0.00;;;8.70;99.90;;;;;;5039710;28;20045;-90
2022/08/06 00:26:08;;;;;;;0.00;0.00;;;8.70;99.90;;;;;;5039753;28;20084;-91
2022/08/06 00:28:33;;;;;;;0.45;0.30;;;8.70;99.90;;;;;;5023277;28;20045;-90
2022/08/06 00:31:02;;;;;;;0.00;0.00;;;8.60;99.90;;;;;;5023275;28;20089;-90
2022/08/06 00:33:28;;;;;;;0.00;0.00;;;8.60;99.90;;;;;;5039536;28;20103;-91
2022/08/06 00:35:54;;;;;;;0.10;0.10;;;8.60;99.90;;;;;;5039172;28;21074;-90
2022/08/06 00:38:19;;;;;;;0.00;0.00;;;8.70;99.90;;;;;;5039699;28;20089;-90
2022/08/06 00:40:45;;;;;;;0.00;0.00;;;8.50;99.90;;;;;;5038088;28;20034;-90
2022/08/06 00:43:12;;;;;;;0.00;0.00;;;8.50;99.90;;;;;;5039344;28;20034;-91
2022/08/06 00:45:38;;;;;;;0.00;0.00;;;8.50;99.90;;;;;;5039137;28;20090;-91
2022/08/06 00:48:04;;;;;;;0.00;0.00;;;8.50;99.90;;;;;;5039636;28;20026;-90
2022/08/06 00:50:34;;;;;;;0.00;0.00;;;8.50;99.90;;;;;;5022741;28;20022;-90
2022/08/06 00:53:01;;;;;;;0.00;0.00;;;8.40;99.90;;;;;;5039775;28;20034;-91
2022/08/06 00:55:27;;;;;;;0.00;0.00;;;8.40;99.90;;;;;;5022928;28;20045;-90
2022/08/06 00:57:52;;;;;;;0.00;0.00;;;8.40;99.90;;;;;;5022581;28;20058;-90
2022/08/06 01:00:18;;;;;;;0.40;0.28;;;7.90;99.90;;;;;;5038785;28;20034;-91
2022/08/06 01:02:44;;;;;;;0.00;0.00;;;8.40;99.90;;;;;;5039033;28;20041;-90
2022/08/06 01:05:10;;;;;;;0.10;0.10;;;8.30;99.90;;;;;;5038746;28;20030;-90
2022/08/06 01:07:36;;;;;;;0.00;0.00;;;8.30;99.90;;;;;;5039158;28;20034;-90
2022/08/06 01:10:02;;;;;;;0.00;0.00;;;8.30;99.90;;;;;;5022534;28;20143;-90
2022/08/06 01:12:29;;;;;;;0.00;0.00;;;8.20;99.90;;;;;;5038832;28;20034;-90
2022/08/06 01:14:55;;;;;;;0.00;0.00;;;8.50;99.90;;;;;;5038977;28;20021;-90
2022/08/06 01:17:38;;;;;;;0.00;0.00;;;8.60;99.90;;;;;;5038504;28;20040;-91
2022/08/06 01:20:19;;;;;;;0.00;0.00;;;8.10;99.90;;;;;;5022252;28;20052;-90
2022/08/06 01:23:14;;;;;;;0.00;0.00;;;8.00;99.90;;;;;;5039236;28;20067;-91
2022/08/06 01:25:59;;;;;;;0.60;0.53;;;8.00;99.90;;;;;;5038752;28;20086;-91
2022/08/06 01:28:43;;;;;;;0.00;0.00;;;7.90;99.90;;;;;;5022042;28;20033;-90
2022/08/06 01:31:12;;;;;;;0.00;0.00;;;8.40;99.90;;;;;;5038696;28;20066;-90
2022/08/06 01:33:51;;;;;;;0.03;0.03;;;8.00;99.90;;;;;;5021812;28;20029;-90
2022/08/06 01:36:23;;;;;;;0.00;0.00;;;7.90;99.90;;;;;;5021971;28;20026;-91
2022/08/06 01:38:52;;;;;;;0.00;0.00;;;8.80;99.90;;;;;;5038585;28;20090;-91
2022/08/06 01:41:38;;;;;;;0.00;0.00;;;7.90;99.90;;;;;;5038068;28;20033;-91
2022/08/06 01:44:07;;;;;;;0.00;0.00;;;7.90;99.90;;;;;;5021812;28;20054;-91
2022/08/06 01:46:38;;;;;;;0.00;0.00;;;7.90;99.90;;;;;;5021643;28;20085;-91
2022/08/06 01:49:06;;;;;;;0.17;0.10;;;7.90;99.90;;;;;;5038102;28;20033;-91
2022/08/06 01:51:34;;;;;;;0.00;0.00;;;7.80;99.90;;;;;;5021702;28;20030;-91
2022/08/06 01:54:02;;;;;;;0.40;0.40;;;7.80;99.90;;;;;;5021663;28;20392;-91
2022/08/06 01:58:59;;;;;;;7.53;0.80;;;7.70;99.90;;;;;;4989432;28;20058;-75
2022/08/06 02:01:27;;;;;;;0.10;0.10;;;7.70;99.90;;;;;;4993292;28;20117;-75
2022/08/06 02:03:54;;;;;;;0.00;0.00;;;7.70;99.90;;;;;;5010281;28;20092;-74
2022/08/06 02:06:24;;;;;;;0.00;0.00;;;7.80;99.90;;;;;;4994288;28;20039;-74
2022/08/06 02:08:52;;;;;;;0.00;0.00;;;7.80;99.90;;;;;;4993036;28;20051;-74
2022/08/06 02:11:18;;;;;;;0.00;0.00;;;7.80;99.90;;;;;;4996014;28;20073;-75
2022/08/06 02:13:45;;;;;;;0.00;0.00;;;7.80;99.90;;;;;;4995865;28;20046;-75
2022/08/06 02:16:13;;;;;;;0.10;0.10;;;7.80;99.90;;;;;;4994229;28;20392;-76
2022/08/06 02:18:43;;;;;;;0.00;0.00;;;7.70;99.90;;;;;;4994484;28;20103;-75
2022/08/06 02:21:14;;;;;;;0.08;0.05;;;7.70;99.90;;;;;;4996010;28;20104;-75
2022/08/06 02:23:42;;;;;;;0.00;0.00;;;7.70;99.90;;;;;;4995171;28;20512;-74
2022/08/06 02:26:08;;;;;;;0.00;0.00;;;7.70;99.90;;;;;;4995524;28;20053;-75
2022/08/06 02:28:36;;;;;;;0.00;0.00;;;7.70;99.90;;;;;;4993691;28;20524;-74
2022/08/06 02:31:02;;;;;;;0.10;0.10;;;7.70;99.90;;;;;;4994529;28;20045;-76
2022/08/06 02:33:29;;;;;;;0.00;0.00;;;7.80;99.90;;;;;;4993363;28;20042;-74
2022/08/06 02:36:18;;;;;;;0.00;0.00;;;7.70;99.90;;;;;;4995499;28;20046;-75
2022/08/06 02:38:55;;;;;;;0.00;0.00;;;7.70;99.90;;;;;;4977773;28;20448;-74
2022/08/06 02:41:34;;;;;;;0.00;0.00;;;7.70;99.90;;;;;;4995301;28;20046;-74
2022/08/06 02:44:09;;;;;;;0.13;0.10;;;7.70;99.90;;;;;;4994912;28;20408;-75
2022/08/06 02:46:43;;;;;;;6.63;0.98;;;7.70;99.90;;;;;;4993908;28;20042;-74
2022/08/06 02:49:36;;;;;;;0.00;0.00;;;7.70;99.90;;;;;;4995846;28;20054;-75
2022/08/06 02:52:15;;;;;;;0.00;0.00;;;7.70;99.90;;;;;;4993123;28;20133;-74
2022/08/06 02:54:54;;;;;;;0.00;0.00;;;7.60;99.90;;;;;;5000921;28;20492;-74
2022/08/06 02:57:28;;;;;;;0.00;0.00;;;7.50;99.90;;;;;;5005981;28;20082;-74
2022/08/06 03:00:01;;;;;;;0.20;0.20;;;7.50;99.90;;;;;;5005425;28;20072;-74
2022/08/06 03:02:29;;;;;;;0.00;0.00;;;7.50;99.90;;;;;;5003466;28;20540;-74
2022/08/06 03:04:57;;;;;;;0.00;0.00;;;7.40;99.90;;;;;;4993354;28;20057;-74
2022/08/06 03:07:27;;;;;;;0.22;0.22;;;7.40;99.90;;;;;;4975637;28;20046;-74
2022/08/06 03:09:54;;;;;;;0.00;0.00;;;7.40;99.90;;;;;;4975837;28;20049;-75
2022/08/06 03:12:21;;;;;;;0.10;0.10;;;7.40;99.90;;;;;;4975592;28;20054;-74
2022/08/06 03:14:48;;;;;;;0.00;0.00;;;7.40;99.90;;;;;;4975504;28;20098;-74
2022/08/06 03:17:16;;;;;;;0.00;0.00;;;7.30;99.90;;;;;;4975894;28;20078;-74
2022/08/06 03:19:44;;;;;;;0.00;0.00;;;7.30;99.90;;;;;;4975760;28;20047;-75
2022/08/06 03:22:11;;;;;;;0.00;0.00;;;7.30;99.90;;;;;;4976322;28;20098;-74
2022/08/06 03:24:38;;;;;;;0.00;0.00;;;7.30;99.90;;;;;;4976176;28;20086;-75
2022/08/06 03:27:06;;;;;;;0.00;0.00;;;7.30;99.90;;;;;;4975995;28;20053;-74
2022/08/06 03:29:33;;;;;;;0.00;0.00;;;7.30;99.90;;;;;;4974821;28;20049;-73
2022/08/06 03:32:00;;;;;;;0.00;0.00;;;7.20;99.90;;;;;;4975538;28;20506;-73
2022/08/06 03:34:30;;;;;;;0.00;0.00;;;7.20;99.90;;;;;;4975892;28;20110;-75
2022/08/06 03:36:56;;;;;;;0.00;0.00;;;7.20;99.90;;;;;;4975690;28;20390;-73
2022/08/06 03:39:25;;;;;;;0.05;0.05;;;7.20;99.90;;;;;;4975222;28;20401;-73
2022/08/06 03:41:52;;;;;;;0.30;0.25;;;7.20;99.90;;;;;;4975070;28;20035;-76
2022/08/06 03:44:18;;;;;;;0.00;0.00;;;7.20;99.90;;;;;;4975539;28;20580;-75
2022/08/06 03:46:48;;;;;;;0.10;0.10;;;7.20;99.90;;;;;;4975786;28;20070;-74
2022/08/06 03:49:24;;;;;;;0.00;0.00;;;7.20;99.90;;;;;;4974444;28;20499;-74
2022/08/06 03:51:53;;;;;;;0.00;0.00;;;7.10;99.90;;;;;;4975376;28;20098;-76
2022/08/06 03:54:25;;;;;;;0.05;0.05;;;7.10;99.90;;;;;;4975142;28;20046;-75
2022/08/06 03:56:54;;;;;;;0.00;0.00;;;7.20;99.90;;;;;;4974622;28;20145;-75
2022/08/06 03:59:21;;;;;;;0.13;0.10;;;7.20;99.90;;;;;;4975274;28;20442;-75
2022/08/06 04:01:48;;;;;;;0.00;0.00;;;7.30;99.90;;;;;;4975989;28;20046;-75
2022/08/06 04:04:15;;;;;;;0.00;0.00;;;7.30;99.90;;;;;;4958405;28;20158;-74
2022/08/06 04:06:43;;;;;;;0.10;0.03;;;7.40;99.90;;;;;;4975125;28;20456;-75
2022/08/06 04:09:10;;;;;;;0.00;0.00;;;7.40;99.90;;;;;;4975149;28;20055;-74
2022/08/06 04:11:36;;;;;;;0.00;0.00;;;7.40;99.90;;;;;;4975309;28;20047;-75
2022/08/06 04:14:03;;;;;;;0.00;0.00;;;7.50;99.90;;;;;;4974614;28;20050;-75
2022/08/06 04:16:30;;;;;;;0.00;0.00;;;7.40;99.90;;;;;;4993642;28;20437;-74
2022/08/06 04:18:57;;;;;;;0.00;0.00;;;7.40;99.90;;;;;;4978996;28;20493;-73
2022/08/06 04:21:24;;;;;;;0.00;0.00;;;7.50;99.90;;;;;;4978531;28;20043;-74
2022/08/06 04:23:51;;;;;;;0.20;0.20;;;7.50;99.90;;;;;;4978139;28;20043;-75
2022/08/06 04:26:22;;;;;;;0.00;0.00;;;7.50;99.90;;;;;;4978476;28;20038;-75
2022/08/06 04:28:50;;;;;;;0.00;0.00;;;7.60;99.90;;;;;;4977706;28;20051;-75
2022/08/06 04:31:17;;;;;;;0.00;0.00;;;7.60;99.90;;;;;;4977993;28;20491;-74
2022/08/06 04:33:44;;;;;;;0.00;0.00;;;7.60;99.90;;;;;;4978810;28;20532;-74
2022/08/06 04:36:10;;;;;;;0.00;0.00;;;7.70;99.90;;;;;;4978561;28;20097;-75
2022/08/06 04:38:36;;;;;;;0.00;0.00;;;7.80;99.90;;;;;;4988801;28;20046;-74
2022/08/06 04:41:02;;;;;;;0.00;0.00;;;7.80;99.90;;;;;;4988153;28;20054;-74
2022/08/06 04:43:29;;;;;;;0.00;0.00;;;7.90;99.90;;;;;;4987124;28;20058;-75
2022/08/06 04:45:55;;;;;;;0.15;0.15;;;8.00;99.90;;;;;;4979141;28;20062;-74
2022/08/06 04:48:22;;;;;;;0.00;0.00;;;8.00;99.90;;;;;;4978091;28;20046;-73
2022/08/06 04:50:48;;;;;;;0.08;0.08;;;8.10;99.90;;;;;;4976707;28;20047;-74
2022/08/06 04:53:16;;;;;;;0.28;0.20;;;8.20;99.90;;;;;;4976666;28;20043;-75
2022/08/06 04:55:43;;;;;;;0.17;0.17;;;8.20;99.90;;;;;;4978195;28;20042;-74
2022/08/06 04:58:11;;;;;;;0.00;0.00;;;8.30;99.90;;;;;;4978081;28;20057;-74
2022/08/06 05:00:42;;;;;;;0.00;0.00;;;8.40;99.90;;;;;;4977946;28;20050;-74
2022/08/06 05:03:08;;;;;;;0.30;0.20;;;8.50;99.90;;;;;;4978578;28;20125;-75
2022/08/06 05:05:39;;;;;;;0.00;0.00;;;8.70;99.90;;;;;;4978619;28;20082;-74
2022/08/06 05:08:06;;;;;;;0.00;0.00;;;8.80;99.90;;;;;;4978968;28;20043;-75
2022/08/06 05:10:39;;;;;;;0.00;0.00;;;9.00;99.90;;;;;;4978932;28;20042;-74
2022/08/06 05:13:06;;;;;;;0.00;0.00;;;9.20;99.90;;;;;;4979351;28;20042;-73
2022/08/06 05:15:36;;;;;;;0.70;0.30;;;9.20;99.90;;;;;;4979032;28;20406;-74
2022/08/06 05:18:19;;;;;;;0.17;0.10;;;9.40;99.90;;;;;;4979386;28;20060;-74
2022/08/06 05:20:51;;;;;;;0.35;0.35;;;9.40;99.90;;;;;;4980809;28;20047;-74
2022/08/06 05:23:34;;;;;;;0.00;0.00;;;9.50;99.90;;;;;;5007928;28;20152;-74
2022/08/06 05:25:59;;;;;;;0.00;0.00;;;9.50;99.90;;;;;;4993334;28;20103;-74
2022/08/06 05:28:25;;;;;;;0.00;0.00;;;9.50;99.90;;;;;;4994777;28;20039;-74
2022/08/06 05:30:51;;;;;;;0.00;0.00;;;9.50;99.90;;;;;;4993527;28;20081;-75
2022/08/06 05:33:27;;;;;;;0.20;0.20;;;9.60;99.90;;;;;;4994613;28;20046;-74
2022/08/06 05:35:54;;;;;;;0.00;0.00;;;9.60;99.90;;;;;;4995528;28;20057;-74
2022/08/06 05:38:20;;;;;;;0.00;0.00;;;9.60;99.90;;;;;;4994825;28;20081;-75
2022/08/06 05:40:45;;;;;;;0.00;0.00;;;9.70;99.90;;;;;;4992016;28;20115;-75
2022/08/06 05:43:11;;;;;;;0.15;0.15;;;9.70;99.90;;;;;;4978902;28;20449;-74
2022/08/06 05:45:41;;;;;;;4.68;0.47;;;9.70;99.90;;;;;;4977628;28;20374;-74
2022/08/06 05:48:07;;;;;;;0.00;0.00;;;9.70;99.90;;;;;;4977172;28;20078;-75
2022/08/06 05:50:40;;;;;;;0.08;0.03;;;9.80;99.90;;;;;;4976319;28;20042;-73
2022/08/06 05:53:12;;;;;;;0.55;0.45;;;9.80;99.90;;;;;;4976850;28;20054;-74
2022/08/06 05:55:45;;;;;;;0.00;0.00;;;9.90;99.90;;;;;;4976227;28;20047;-74
2022/08/06 05:58:15;;;;;;;0.00;0.00;;;10.10;99.90;;;;;;4976656;28;20069;-75
2022/08/06 06:00:42;;;;;;;0.00;0.00;;;10.70;99.90;;;;;;4975983;28;20038;-75
2022/08/06 06:03:11;;;;;;;0.00;0.00;;;11.50;99.90;;;;;;4975057;28;20051;-74
2022/08/06 06:05:38;;;;;;;0.00;0.00;;;12.50;99.90;;;;;;4977013;28;20421;-75
2022/08/06 06:08:06;;;;;;;0.28;0.28;;;12.80;99.90;;;;;;4975829;28;20038;-76
2022/08/06 06:10:33;;;;;;;0.05;0.05;;;12.80;99.90;;;;;;4976703;28;20079;-75
2022/08/06 06:12:59;;;;;;;0.00;0.00;;;13.60;99.90;;;;;;4976237;28;20051;-75
2022/08/06 06:15:25;;;;;;;0.10;0.10;;;14.50;99.90;;;;;;4975948;28;20046;-74
2022/08/06 06:18:28;;;;;;;0.65;0.35;;;15.30;99.90;;;;;;4975821;28;20058;-76
2022/08/06 06:21:24;;;;;;;0.00;0.00;;;16.00;99.90;;;;;;4977109;28;20486;-75
2022/08/06 06:23:58;;;;;;;0.00;0.00;;;16.80;99.90;;;;;;4984438;28;20090;-75
2022/08/06 06:26:32;;;;;;;0.43;0.08;;;17.70;99.90;;;;;;4991754;28;20039;-74
2022/08/06 06:29:23;;;;;;;0.80;0.38;;;18.40;99.90;;;;;;4989610;28;20137;-74
2022/08/06 06:32:10;;;;;;;0.00;0.00;;;19.10;99.90;;;;;;4976587;28;20046;-75
2022/08/06 06:35:01;;;;;;;0.13;0.13;;;19.40;99.90;;;;;;4976507;28;20055;-76
2022/08/06 06:37:43;;;;;;;0.22;0.20;;;20.20;99.90;;;;;;4965433;28;20050;-76
2022/08/06 06:40:17;;;;;;;0.00;0.00;;;20.60;99.90;;;;;;4964461;28;20434;-74
2022/08/06 06:42:51;;;;;;;0.00;0.00;;;20.30;99.90;;;;;;4973512;28;20081;-74
2022/08/06 06:45:24;;;;;;;0.20;0.00;;;19.70;99.90;;;;;;4976505;28;20054;-74
2022/08/06 06:48:08;;;;;;;5.32;0.93;;;19.90;99.90;;;;;;4976711;28;20513;-76
2022/08/06 06:50:42;;;;;;;0.05;0.05;;;19.90;99.90;;;;;;4976289;28;20126;-75
2022/08/06 06:53:10;;;;;;;0.00;0.00;;;19.60;99.90;;;;;;4976082;28;20125;-76
2022/08/06 06:55:42;;;;;;;0.05;0.00;;;19.60;99.90;;;;;;4975043;28;20169;-76
2022/08/06 06:58:25;;;;;;;0.00;0.00;;;20.30;99.90;;;;;;4973387;28;20500;-75
2022/08/06 07:00:53;;;;;;;0.00;0.00;;;21.30;99.90;;;;;;4973339;28;20050;-75
2022/08/06 07:03:20;;;;;;;0.00;0.00;;;22.00;93.40;;;;;;4973580;28;20042;-77
2022/08/06 07:05:48;;;;;;;0.95;0.22;;;22.50;89.90;;;;;;4972440;28;20070;-76
2022/08/06 07:08:16;;;;;;;0.00;0.00;;;22.60;70.50;;;;;;4973216;28;20062;-75
2022/08/06 07:10:43;;;;;;;0.10;0.05;;;23.00;71.40;;;;;;4966854;28;20506;-74
2022/08/06 07:13:10;;;;;;;0.00;0.00;;;23.40;56.00;;;;;;4964847;28;20034;-74
2022/08/06 07:15:36;;;;;;;0.00;0.00;;;23.40;41.60;;;;;;4961061;28;20050;-74
2022/08/06 07:18:05;;;;;;;0.00;0.00;;;23.90;48.50;;;;;;4964394;28;20098;-76
2022/08/06 07:20:32;;;;;;;0.00;0.00;;;24.40;39.90;;;;;;4959916;28;20043;-76
2022/08/06 07:23:04;;;;;;;0.00;0.00;;;24.60;44.00;;;;;;4954191;28;20354;-74
2022/08/06 07:25:33;;;;;;;0.00;0.00;;;24.20;31.60;;;;;;4960631;28;20051;-76
2022/08/06 07:27:59;;;;;;;0.63;0.10;;;23.90;36.10;;;;;;4964313;28;20102;-76
2022/08/06 07:30:25;;;;;;;0.00;0.00;;;24.40;32.10;;;;;;4962778;28;20043;-75
2022/08/06 07:32:51;;;;;;;0.00;0.00;;;24.70;28.80;;;;;;4962818;28;20039;-76
2022/08/06 07:35:20;;;;;;;2.03;0.35;;;24.90;22.10;;;;;;4965840;28;20565;-75
2022/08/06 07:37:54;;;;;;;0.00;0.00;;;24.80;16.80;;;;;;4965930;28;20039;-75
2022/08/06 07:40:25;;;;;;;0.00;0.00;;;25.00;20.10;;;;;;4963779;28;20082;-75
2022/08/06 07:43:00;;;;;;;0.00;0.00;;;25.80;24.70;;;;;;4961173;28;20515;-76
2022/08/06 07:45:31;;;;;;;0.00;0.00;;;25.90;16.90;;;;;;4966825;28;20039;-76
2022/08/06 07:48:00;;;;;;;0.00;0.00;;;26.10;14.10;;;;;;4958982;28;20473;-76
2022/08/06 07:50:27;;;;;;;0.03;0.03;;;25.60;7.80;;;;;;4964876;28;20146;-75
2022/08/06 07:52:55;;;;;;;0.08;0.08;;;25.40;4.60;;;;;;4948088;28;20141;-76
2022/08/06 07:55:24;;;;;;;0.10;0.10;;;26.40;12.40;;;;;;4970586;28;20121;-76
2022/08/06 07:57:52;;;;;;;1.48;0.90;;;26.90;5.00;;;;;;4974514;28;20063;-76
2022/08/06 08:00:18;;;;;;;0.17;0.17;;;26.60;1.00;;;;;;4975402;28;20050;-75
2022/08/06 08:06:17;;;;;;;0.00;0.00;;;26.30;1.00;;;;;;4973625;28;20053;-74
2022/08/06 08:08:15;;;;;;;0.00;0.00;;;24.50;7.50;;;;;;4974152;28;20122;-76
2022/08/06 08:10:42;;;;;;;0.00;0.00;;;25.10;4.10;;;;;;4972829;28;20647;-75
2022/08/06 08:13:09;;;;;;;0.10;0.10;;;25.10;4.30;;;;;;4981975;28;20047;-74
2022/08/06 08:15:36;;;;;;;0.20;0.10;;;25.00;3.50;;;;;;4975506;28;20122;-74
2022/08/06 08:18:03;;;;;;;0.00;0.00;;;25.80;3.70;;;;;;4975350;28;20074;-75
2022/08/06 08:20:30;;;;;;;0.00;0.00;;;26.70;1.00;;;;;;4974114;28;20544;-75
2022/08/06 08:22:56;;;;;;;0.10;0.05;;;25.40;1.00;;;;;;4963913;28;20471;-74
2022/08/06 08:25:22;;;;;;;0.00;0.00;;;24.40;5.40;;;;;;4964030;28;20043;-75
2022/08/06 08:27:47;;;;;;;0.08;0.00;;;24.10;5.00;;;;;;4963218;28;20398;-74
2022/08/06 08:30:13;;;;;;;0.00;0.00;;;23.90;9.60;;;;;;4964774;28;20047;-75
2022/08/06 08:32:38;;;;;;;0.00;0.00;;;23.30;6.50;;;;;;4963705;28;20035;-75
2022/08/06 08:35:04;;;;;;;0.13;0.13;;;24.20;8.30;;;;;;4959783;28;20047;-76
2022/08/06 08:37:30;;;;;;;0.30;0.10;;;25.80;4.10;;;;;;4954333;29;20114;-75
2022/08/06 08:39:55;;;;;;;0.00;0.00;;;27.10;1.00;;;;;;4954878;28;20415;-75
2022/08/06 08:42:39;;;;;;;0.00;0.00;;;27.00;1.00;;;;;;4955634;28;20047;-76
2022/08/06 08:45:06;;;;;;;0.30;0.10;;;25.70;1.00;;;;;;4955713;28;20047;-76
2022/08/06 08:47:33;;;;;;;0.30;0.10;;;24.60;1.00;;;;;;4956215;28;20052;-75
2022/08/06 08:50:00;;;;;;;0.00;0.00;;;23.80;2.00;;;;;;4954029;29;20044;-76
2022/08/06 08:52:34;;;;;;;0.05;0.05;;;23.10;6.60;;;;;;4955617;28;20561;-75
2022/08/06 08:55:06;;;;;;;0.20;0.15;;;22.40;10.60;;;;;;4955468;28;20040;-76
2022/08/06 08:57:33;;;;;;;0.00;0.00;;;21.60;14.00;;;;;;4954962;28;20055;-76
2022/08/06 09:00:01;;;;;;;0.00;0.00;;;21.40;19.20;;;;;;4954096;28;20061;-74
2022/08/06 09:02:28;;;;;;;0.08;0.08;;;21.10;20.00;;;;;;4954607;28;20042;-75
2022/08/06 09:04:54;;;;;;;0.13;0.03;;;21.00;22.50;;;;;;4956922;28;20436;-74
2022/08/06 09:07:20;;;;;;;0.17;0.17;;;20.90;22.10;;;;;;4955346;29;20054;-74
2022/08/06 09:09:46;;;;;;;0.90;0.10;;;21.30;19.70;;;;;;4956565;28;20418;-74
2022/08/06 09:12:14;;;;;;;0.82;0.45;;;22.20;15.50;;;;;;4958466;28;20047;-75
2022/08/06 09:14:43;;;;;;;2.53;0.65;;;24.60;7.30;;;;;;4955685;29;20082;-73
2022/08/06 09:17:09;;;;;;;0.30;0.20;;;24.80;5.00;;;;;;4965267;28;20100;-73
2022/08/06 09:19:35;;;;;;;0.10;0.10;;;25.60;1.00;;;;;;4971227;28;20039;-75
2022/08/06 09:22:01;;;;;;;1.02;0.57;;;25.50;1.00;;;;;;4965127;29;20166;-74
2022/08/06 09:24:27;;;;;;;0.20;0.20;;;24.40;1.00;;;;;;4955809;28;20047;-74
2022/08/06 09:27:10;;;;;;;0.30;0.10;;;24.30;1.00;;;;;;4955358;28;20050;-74
2022/08/06 09:29:47;;;;;;;0.00;0.00;;;23.60;1.00;;;;;;4954884;28;20494;-74
2022/08/06 09:32:12;;;;;;;0.32;0.28;;;23.20;2.00;;;;;;4955284;28;20065;-75
2022/08/06 09:34:39;;;;;;;0.00;0.00;;;22.30;7.00;;;;;;4955412;28;20043;-74
2022/08/06 09:37:05;;;;;;;0.35;0.25;;;21.60;18.10;;;;;;4955786;28;20051;-75
2022/08/06 09:39:44;;;;;;;0.00;0.00;;;20.90;29.30;;;;;;4955201;28;20039;-75
2022/08/06 09:42:10;;;;;;;0.45;0.40;;;20.40;42.90;;;;;;4953964;28;20055;-76
2022/08/06 09:44:36;;;;;;;1.67;0.60;;;20.00;61.30;;;;;;4965953;28;20126;-75
2022/08/06 09:47:01;;;;;;;0.00;0.00;;;19.70;77.30;;;;;;4954543;28;20137;-75
2022/08/06 09:49:27;;;;;;;0.10;0.10;;;19.40;99.90;;;;;;4954511;28;20127;-75
2022/08/06 09:52:16;;;;;;;0.05;0.05;;;19.20;99.90;;;;;;4954844;28;20145;-74
2022/08/06 09:54:41;;;;;;;0.00;0.00;;;18.80;99.90;;;;;;4953966;28;20425;-74
2022/08/06 09:57:07;;;;;;;0.00;0.00;;;18.70;99.90;;;;;;4971812;28;20055;-75
2022/08/06 09:59:46;;;;;;;4.50;0.70;;;18.70;99.90;;;;;;4976927;28;20121;-75
2022/08/06 10:02:17;;;;;;;0.00;0.00;;;18.90;99.90;;;;;;4977935;28;20043;-74
2022/08/06 10:04:44;;;;;;;0.13;0.10;;;18.80;99.90;;;;;;4980116;28;20090;-75
2022/08/06 10:07:10;;;;;;;0.00;0.00;;;18.80;99.90;;;;;;4979496;28;20123;-74
2022/08/06 10:09:49;;;;;;;0.00;0.00;;;18.90;99.90;;;;;;4979933;28;20078;-75
2022/08/06 10:12:21;;;;;;;0.10;0.10;;;19.10;99.90;;;;;;4973044;28;20058;-73
2022/08/06 10:14:46;;;;;;;1.80;0.68;;;19.30;99.90;;;;;;4972258;28;20051;-73
2022/08/06 10:17:20;;;;;;;0.00;0.00;;;19.40;99.90;;;;;;4975968;28;20166;-75
2022/08/06 10:20:03;;;;;;;0.00;0.00;;;19.60;99.90;;;;;;4978230;28;20050;-75
2022/08/06 10:22:29;;;;;;;0.00;0.00;;;20.30;99.90;;;;;;4976125;28;20042;-75
2022/08/06 10:24:56;;;;;;;0.10;0.00;;;20.90;85.80;;;;;;4970278;28;20110;-76
2022/08/06 10:27:25;;;;;;;0.38;0.30;;;21.80;77.50;;;;;;4972249;28;20512;-75
2022/08/06 10:29:53;;;;;;;0.00;0.00;;;22.60;51.10;;;;;;4972848;28;20101;-76
2022/08/06 10:32:49;;;;;;;0.20;0.20;;;23.20;43.10;;;;;;4980688;28;20077;-75
2022/08/06 10:35:23;;;;;;;2.25;0.30;;;23.80;22.20;;;;;;4956978;29;20043;-76
2022/08/06 10:37:58;;;;;;;0.47;0.15;;;24.80;23.00;;;;;;4955541;28;20059;-73
2022/08/06 10:40:26;;;;;;;0.08;0.08;;;25.20;10.20;;;;;;4952849;28;20090;-74
2022/08/06 10:42:52;;;;;;;0.98;0.30;;;25.50;5.90;;;;;;4951630;29;20062;-75
2022/08/06 10:45:18;;;;;;;0.00;0.00;;;25.00;2.80;;;;;;4952591;29;20043;-74
2022/08/06 10:47:46;;;;;;;0.17;0.15;;;24.80;1.00;;;;;;4952782;28;20039;-75
2022/08/06 10:50:13;;;;;;;1.27;0.43;;;24.10;2.90;;;;;;4953032;28;20047;-74
2022/08/06 10:52:40;;;;;;;0.10;0.05;;;23.70;1.30;;;;;;4952783;28;20467;-73
2022/08/06 10:55:06;;;;;;;0.00;0.00;;;23.70;6.70;;;;;;4953193;28;20055;-73
2022/08/06 10:57:32;;;;;;;1.55;0.47;;;23.60;6.10;;;;;;4952006;28;20066;-74
2022/08/06 11:00:00;;;;;;;0.20;0.10;;;23.40;7.50;;;;;;4953090;28;20054;-75
2022/08/06 11:02:57;;;;;;;0.20;0.20;;;23.50;8.00;;;;;;4954106;28;20039;-74
2022/08/06 11:05:37;;;;;;;0.00;0.00;;;23.60;10.20;;;;;;4968896;28;20050;-75
2022/08/06 11:08:18;;;;;;;0.03;0.00;;;23.70;7.60;;;;;;4953566;28;20043;-75
2022/08/06 11:11:26;;;;;;;0.73;0.25;;;24.20;7.50;;;;;;4952235;28;20129;-75
2022/08/06 11:14:10;;;;;;;0.00;0.00;;;24.40;7.10;;;;;;4954674;28;20102;-74
2022/08/06 11:16:37;;;;;;;0.00;0.00;;;24.50;5.90;;;;;;4958704;28;20042;-74
2022/08/06 11:19:02;;;;;;;0.38;0.20;;;24.70;2.80;;;;;;4972860;28;20417;-74
2022/08/06 11:21:46;;;;;;;0.00;0.00;;;25.20;2.60;;;;;;4972453;28;20053;-74
2022/08/06 11:24:14;;;;;;;0.35;0.30;;;25.00;1.00;;;;;;4974105;28;20408;-74
2022/08/06 11:26:42;;;;;;;0.08;0.08;;;25.20;1.00;;;;;;4977063;28;20061;-76
2022/08/06 11:29:12;;;;;;;0.00;0.00;;;25.10;1.00;;;;;;4977276;28;20046;-74
2022/08/06 11:31:50;;;;;;;0.00;0.00;;;25.00;1.00;;;;;;4976866;28;20046;-73
2022/08/06 11:34:20;;;;;;;0.75;0.50;;;25.00;1.00;;;;;;4976903;28;20456;-76
2022/08/06 11:37:01;;;;;;;0.05;0.00;;;25.30;1.00;;;;;;4974838;28;20053;-76
2022/08/06 11:39:30;;;;;;;0.10;0.10;;;25.40;1.00;;;;;;4972144;28;20499;-76
2022/08/06 11:41:59;;;;;;;0.00;0.00;;;25.30;1.00;;;;;;4975001;28;20046;-75
2022/08/06 11:44:29;;;;;;;0.10;0.10;;;25.70;1.00;;;;;;4975055;28;20448;-76
2022/08/06 11:47:09;;;;;;;0.52;0.52;;;26.00;1.00;;;;;;4975096;28;20047;-75
2022/08/06 11:49:34;;;;;;;1.23;0.60;;;26.40;1.00;;;;;;4973967;28;20049;-76
2022/08/06 11:52:01;;;;;;;0.00;0.00;;;27.40;1.00;;;;;;4974356;28;20046;-75
2022/08/06 11:54:32;;;;;;;0.35;0.35;;;27.90;1.00;;;;;;4958320;28;20046;-75
2022/08/06 11:57:06;;;;;;;0.43;0.43;;;28.40;1.00;;;;;;4973550;28;20117;-74
2022/08/06 11:59:37;;;;;;;0.13;0.10;;;28.10;1.00;;;;;;4972931;28;20059;-74
2022/08/06 12:02:05;;;;;;;1.85;0.57;;;27.60;1.00;;;;;;4975746;28;20042;-74
2022/08/06 12:04:39;;;;;;;0.57;0.10;;;27.30;1.00;;;;;;4975819;28;20493;-73
2022/08/06 12:07:24;;;;;;;0.00;0.00;;;27.10;1.00;;;;;;4972751;28;20046;-74
2022/08/06 12:10:05;;;;;;;0.88;0.28;;;26.10;1.00;;;;;;4968769;28;20051;-74
2022/08/06 12:12:38;;;;;;;0.80;0.13;;;25.40;1.00;;;;;;4974436;28;20051;-74
2022/08/06 12:15:15;;;;;;;0.13;0.10;;;25.30;1.00;;;;;;4974885;28;20055;-73
2022/08/06 12:17:57;;;;;;;0.75;0.50;;;25.60;1.00;;;;;;4974741;28;20155;-73
2022/08/06 12:20:31;;;;;;;0.38;0.30;;;25.60;1.00;;;;;;4975697;28;20046;-73
2022/08/06 12:23:02;;;;;;;0.22;0.22;;;25.70;1.00;;;;;;4975880;28;20408;-74
2022/08/06 12:25:35;;;;;;;0.00;0.00;;;25.20;1.00;;;;;;4975594;28;20122;-75
2022/08/06 12:28:01;;;;;;;0.55;0.32;;;24.70;1.00;;;;;;4975868;28;20524;-73
2022/08/06 12:30:39;;;;;;;4.18;0.43;;;25.20;1.00;;;;;;4977921;28;20061;-73
2022/08/06 12:33:08;;;;;;;0.63;0.55;;;25.10;1.00;;;;;;4978261;28;20050;-74
2022/08/06 12:35:33;;;;;;;0.00;0.00;;;25.60;1.00;;;;;;4976456;28;20070;-72
2022/08/06 12:37:59;;;;;;;0.90;0.55;;;25.90;1.00;;;;;;4978384;28;20086;-74
2022/08/06 12:40:27;;;;;;;0.22;0.22;;;26.70;1.00;;;;;;4976713;28;20050;-72
2022/08/06 12:43:14;;;;;;;0.60;0.30;;;27.50;1.00;;;;;;4976888;28;20066;-73
2022/08/06 12:45:40;;;;;;;0.80;0.40;;;28.50;1.00;;;;;;4977302;28;20062;-74
2022/08/06 12:48:11;;;;;;;2.00;0.35;;;29.80;1.00;;;;;;4974925;28;20046;-73
2022/08/06 12:50:39;;;;;;;0.85;0.63;;;29.50;1.00;;;;;;4976879;28;20062;-74
2022/08/06 12:53:11;;;;;;;0.50;0.32;;;28.50;1.00;;;;;;4976886;28;20053;-73
2022/08/06 12:55:50;;;;;;;0.20;0.20;;;28.70;1.00;;;;;;4976501;28;20513;-73
2022/08/06 12:58:19;;;;;;;0.13;0.13;;;29.20;1.00;;;;;;4976543;28;20057;-73
2022/08/06 13:00:50;;;;;;;0.30;0.10;;;29.80;1.00;;;;;;4977041;28;20051;-73
2022/08/06 13:03:19;;;;;;;2.58;0.43;;;29.10;1.00;;;;;;4976887;28;20062;-74
2022/08/06 13:05:45;;;;;;;0.10;0.10;;;28.90;1.00;;;;;;4975711;28;20142;-72
2022/08/06 13:08:12;;;;;;;0.30;0.20;;;28.60;1.00;;;;;;4985443;28;20047;-73
2022/08/06 13:10:38;;;;;;;0.55;0.45;;;28.60;1.00;;;;;;4982312;28;20047;-73
2022/08/06 13:13:05;;;;;;;0.10;0.10;;;28.80;1.00;;;;;;4984274;28;20098;-73
2022/08/06 13:15:32;;;;;;;0.35;0.25;;;29.50;1.00;;;;;;4973906;28;20087;-73
2022/08/06 13:18:02;;;;;;;1.17;0.68;;;29.80;1.00;;;;;;4956879;28;20047;-74